createdAt,value
2018-06-27T00:01:08.129Z,18.30
2018-06-27T00:03:37.155Z,18.00
2018-06-27T00:06:05.418Z,18.00
2018-06-27T00:08:33.660Z,18.20
2018-06-27T00:11:01.936Z,18.40
2018-06-27T00:13:30.462Z,18.70
2018-06-27T00:15:58.733Z,18.80
2018-06-27T00:18:26.997Z,18.80
2018-06-27T00:20:55.235Z,18.70
2018-06-27T00:23:23.515Z,18.60
2018-06-27T00:25:51.766Z,18.20
2018-06-27T00:28:20.019Z,18.20
2018-06-27T00:30:48.295Z,18.30
2018-06-27T00:33:16.538Z,18.40
2018-06-27T00:35:44.799Z,18.50
2018-06-27T00:38:13.843Z,18.50
2018-06-27T00:40:42.119Z,18.50
2018-06-27T00:43:10.390Z,18.20
2018-06-27T00:45:38.643Z,18.10
2018-06-27T00:48:06.919Z,18.10
2018-06-27T00:50:35.157Z,17.90
2018-06-27T00:53:03.425Z,17.90
2018-06-27T00:55:31.747Z,18.10
2018-06-27T00:58:00.012Z,18.20
2018-06-27T01:00:28.277Z,18.20
2018-06-27T01:02:57.369Z,17.60
2018-06-27T01:05:26.402Z,17.60
2018-06-27T01:07:54.681Z,17.60
2018-06-27T01:10:22.922Z,17.60
2018-06-27T01:12:51.164Z,17.60
2018-06-27T01:15:19.467Z,17.60
2018-06-27T01:17:47.701Z,17.50
2018-06-27T01:20:15.959Z,17.50
2018-06-27T01:22:44.213Z,17.40
2018-06-27T01:25:12.479Z,17.30
2018-06-27T01:27:40.720Z,17.40
2018-06-27T01:30:08.994Z,17.40
2018-06-27T01:32:37.262Z,17.50
2018-06-27T01:35:05.524Z,17.60
2018-06-27T01:37:33.761Z,17.60
2018-06-27T01:40:02.096Z,17.60
2018-06-27T01:42:30.303Z,17.60
2018-06-27T01:44:58.562Z,17.60
2018-06-27T01:47:27.579Z,17.70
2018-06-27T01:49:55.858Z,17.70
2018-06-27T01:52:24.303Z,17.80
2018-06-27T01:54:53.321Z,17.60
2018-06-27T01:57:21.595Z,17.60
2018-06-27T01:59:49.835Z,17.70
2018-06-27T02:02:18.095Z,17.70
2018-06-27T02:04:46.360Z,17.70
2018-06-27T02:07:14.619Z,17.70
2018-06-27T02:09:42.868Z,17.60
2018-06-27T02:12:11.122Z,17.30
2018-06-27T02:14:40.137Z,16.70
2018-06-27T02:17:08.416Z,16.70
2018-06-27T02:19:36.666Z,16.70
2018-06-27T02:22:05.679Z,17.00
2018-06-27T02:24:33.939Z,17.00
2018-06-27T02:27:02.952Z,17.00
2018-06-27T02:29:31.218Z,17.00
2018-06-27T02:32:02.006Z,17.00
2018-06-27T02:34:30.268Z,17.10
2018-06-27T02:36:58.520Z,17.00
2018-06-27T02:39:26.777Z,17.00
2018-06-27T02:41:55.038Z,17.00
2018-06-27T02:44:23.308Z,17.00
2018-06-27T02:46:52.320Z,17.00
2018-06-27T02:49:20.671Z,16.90
2018-06-27T02:51:48.908Z,16.90
2018-06-27T02:54:17.174Z,16.80
2018-06-27T02:56:45.409Z,16.80
2018-06-27T02:59:13.683Z,16.90
2018-06-27T03:01:42.699Z,17.00
2018-06-27T03:04:10.979Z,17.00
2018-06-27T03:06:39.236Z,17.00
2018-06-27T03:09:07.477Z,16.80
2018-06-27T03:11:35.759Z,16.70
2018-06-27T03:14:04.004Z,16.60
2018-06-27T03:16:32.253Z,16.60
2018-06-27T03:19:00.507Z,16.50
2018-06-27T03:21:28.769Z,16.50
2018-06-27T03:23:57.830Z,16.40
2018-06-27T03:26:26.111Z,16.30
2018-06-27T03:28:54.351Z,16.30
2018-06-27T03:31:23.223Z,16.30
2018-06-27T03:33:51.570Z,16.30
2018-06-27T03:36:19.926Z,16.30
2018-06-27T03:38:48.178Z,16.20
2018-06-27T03:41:16.492Z,16.30
2018-06-27T03:43:45.581Z,16.20
2018-06-27T03:46:13.782Z,16.20
2018-06-27T03:48:42.045Z,16.10
2018-06-27T03:51:11.071Z,16.10
2018-06-27T03:53:39.334Z,16.10
2018-06-27T03:56:07.627Z,16.20
2018-06-27T04:01:11.224Z,16.00
2018-06-27T04:03:39.520Z,15.90
2018-06-27T04:06:07.758Z,16.00
2018-06-27T04:08:36.786Z,15.90
2018-06-27T04:11:05.045Z,15.80
2018-06-27T04:13:33.398Z,15.80
2018-06-27T04:16:02.331Z,16.00
2018-06-27T04:18:30.590Z,16.00
2018-06-27T04:20:58.843Z,16.20
2018-06-27T04:23:27.851Z,16.60
2018-06-27T04:25:56.134Z,16.60
2018-06-27T04:28:24.398Z,16.70
2018-06-27T04:30:53.424Z,16.90
2018-06-27T04:33:21.749Z,16.90
2018-06-27T04:35:50.772Z,16.50
2018-06-27T04:38:19.413Z,16.50
2018-06-27T04:40:47.658Z,16.50
2018-06-27T04:43:16.014Z,16.40
2018-06-27T04:45:44.183Z,16.50
2018-06-27T04:48:12.465Z,16.70
2018-06-27T04:50:40.767Z,16.70
2018-06-27T04:53:09.018Z,16.70
2018-06-27T04:55:37.268Z,16.70
2018-06-27T04:58:05.532Z,16.70
2018-06-27T05:00:34.562Z,16.60
2018-06-27T05:03:02.815Z,16.60
2018-06-27T05:05:31.090Z,16.70
2018-06-27T05:07:59.389Z,16.80
2018-06-27T05:10:27.658Z,16.90
2018-06-27T05:12:55.903Z,16.90
2018-06-27T05:15:24.951Z,17.20
2018-06-27T05:17:53.214Z,17.20
2018-06-27T05:20:21.482Z,17.30
2018-06-27T05:22:49.756Z,17.40
2018-06-27T05:25:18.015Z,17.60
2018-06-27T05:27:46.265Z,17.70
2018-06-27T05:30:15.299Z,17.90
2018-06-27T05:32:43.550Z,17.90
2018-06-27T05:35:11.897Z,18.00
2018-06-27T05:37:40.111Z,18.10
2018-06-27T05:40:08.383Z,18.10
2018-06-27T05:42:36.630Z,18.20
2018-06-27T05:45:05.667Z,18.50
2018-06-27T05:47:33.936Z,18.50
2018-06-27T05:50:02.215Z,18.50
2018-06-27T05:52:30.465Z,18.60
2018-06-27T05:54:58.743Z,18.70
2018-06-27T05:57:26.991Z,18.80
2018-06-27T05:59:56.019Z,19.00
2018-06-27T06:02:24.279Z,18.90
2018-06-27T06:04:53.303Z,19.00
2018-06-27T06:07:21.581Z,19.00
2018-06-27T06:09:49.858Z,19.00
2018-06-27T06:12:18.112Z,18.90
2018-06-27T06:14:46.386Z,19.00
2018-06-27T06:17:14.659Z,19.10
2018-06-27T06:22:17.491Z,19.40
2018-06-27T06:24:45.753Z,19.70
2018-06-27T06:27:14.028Z,19.80
2018-06-27T06:29:42.262Z,19.80
2018-06-27T06:32:11.328Z,20.00
2018-06-27T06:34:39.547Z,20.00
2018-06-27T06:37:07.818Z,20.20
2018-06-27T06:39:36.082Z,20.40
2018-06-27T06:42:04.346Z,20.50
2018-06-27T06:44:33.418Z,20.90
2018-06-27T06:47:01.680Z,20.90
2018-06-27T06:49:29.930Z,20.90
2018-06-27T06:51:58.191Z,20.90
2018-06-27T06:54:26.668Z,20.90
2018-06-27T06:56:54.943Z,21.10
2018-06-27T06:59:23.230Z,21.20
2018-06-27T07:01:51.500Z,21.40
2018-06-27T07:04:19.770Z,21.60
2018-06-27T07:06:48.010Z,21.70
2018-06-27T07:09:17.087Z,22.20
2018-06-27T07:11:45.357Z,22.20
2018-06-27T07:14:13.601Z,22.50
2018-06-27T07:16:41.872Z,22.70
2018-06-27T07:19:10.123Z,22.80
2018-06-27T07:21:39.158Z,22.90
2018-06-27T07:24:07.473Z,22.90
2018-06-27T07:26:35.711Z,23.00
2018-06-27T07:29:03.956Z,23.10
2018-06-27T07:31:32.199Z,22.90
2018-06-27T07:34:01.225Z,23.00
2018-06-27T07:36:29.474Z,22.90
2018-06-27T07:38:58.515Z,23.30
2018-06-27T07:41:26.796Z,23.20
2018-06-27T07:43:55.045Z,23.30
2018-06-27T07:46:23.316Z,23.50
2018-06-27T07:48:51.573Z,23.70
2018-06-27T07:51:19.871Z,23.90
2018-06-27T07:53:48.129Z,24.00
2018-06-27T07:56:16.374Z,24.10
2018-06-27T07:58:44.634Z,24.20
2018-06-27T08:01:12.913Z,24.00
2018-06-27T08:03:41.913Z,24.20
2018-06-27T08:06:10.264Z,24.20
2018-06-27T08:08:38.507Z,24.30
2018-06-27T08:11:06.774Z,24.50
2018-06-27T08:13:35.788Z,24.70
2018-06-27T08:16:04.049Z,24.70
2018-06-27T08:18:32.289Z,24.80
2018-06-27T08:21:00.625Z,25.00
2018-06-27T08:23:28.858Z,25.00
2018-06-27T08:25:57.888Z,25.10
2018-06-27T08:28:26.164Z,25.10
2018-06-27T08:30:54.411Z,25.20
2018-06-27T08:33:22.678Z,25.20
2018-06-27T08:35:51.694Z,25.30
2018-06-27T08:38:19.964Z,25.30
2018-06-27T08:40:48.204Z,25.50
2018-06-27T08:43:17.233Z,25.50
2018-06-27T08:45:45.877Z,25.50
2018-06-27T08:48:14.138Z,25.60
2018-06-27T08:50:42.377Z,25.70
2018-06-27T08:53:10.669Z,25.80
2018-06-27T08:55:38.901Z,26.10
2018-06-27T08:58:07.911Z,26.30
2018-06-27T09:00:36.190Z,26.30
2018-06-27T09:03:04.435Z,26.20
2018-06-27T09:05:33.459Z,26.10
2018-06-27T09:08:02.032Z,26.10
2018-06-27T09:10:30.272Z,26.20
2018-06-27T09:12:58.615Z,26.20
2018-06-27T09:15:26.853Z,26.40
2018-06-27T09:17:55.106Z,26.30
2018-06-27T09:20:24.150Z,26.40
2018-06-27T09:22:52.415Z,26.40
2018-06-27T09:25:20.676Z,26.50
2018-06-27T09:27:48.947Z,26.20
2018-06-27T09:30:17.180Z,26.10
2018-06-27T09:32:45.434Z,25.90
2018-06-27T09:35:13.697Z,26.10
2018-06-27T09:37:41.956Z,26.30
2018-06-27T09:40:10.199Z,26.50
2018-06-27T09:42:39.248Z,26.60
2018-06-27T09:45:07.500Z,26.50
2018-06-27T09:47:35.751Z,26.30
2018-06-27T09:50:04.767Z,26.20
2018-06-27T09:52:33.038Z,26.20
2018-06-27T09:55:01.278Z,26.30
2018-06-27T09:57:30.310Z,26.20
2018-06-27T09:59:58.587Z,26.10
2018-06-27T10:02:26.848Z,26.30
2018-06-27T10:04:55.130Z,26.40
2018-06-27T10:07:23.444Z,26.40
2018-06-27T10:09:51.718Z,26.60
2018-06-27T10:12:19.947Z,26.80
2018-06-27T10:14:48.192Z,26.90
2018-06-27T10:17:17.252Z,27.20
2018-06-27T10:19:45.483Z,27.20
2018-06-27T10:22:13.771Z,27.30
2018-06-27T10:24:42.743Z,27.10
2018-06-27T10:27:11.782Z,27.00
2018-06-27T10:29:40.032Z,27.00
2018-06-27T10:32:08.270Z,26.60
2018-06-27T10:34:36.525Z,26.50
2018-06-27T10:37:04.810Z,26.50
2018-06-27T10:39:33.055Z,26.60
2018-06-27T10:42:01.318Z,26.60
2018-06-27T10:44:29.611Z,26.40
2018-06-27T10:46:57.833Z,26.60
2018-06-27T10:49:26.858Z,27.10
2018-06-27T10:51:55.840Z,27.10
2018-06-27T10:54:24.116Z,27.30
2018-06-27T10:56:52.350Z,27.40
2018-06-27T10:59:20.628Z,27.50
2018-06-27T11:01:48.864Z,27.80
2018-06-27T11:04:17.139Z,27.90
2018-06-27T11:06:45.386Z,27.80
2018-06-27T11:09:13.634Z,27.70
2018-06-27T11:11:42.691Z,27.40
2018-06-27T11:14:11.019Z,27.40
2018-06-27T11:16:39.993Z,27.20
2018-06-27T11:19:09.026Z,27.30
2018-06-27T11:21:37.298Z,27.30
2018-06-27T11:24:05.583Z,27.60
2018-06-27T11:26:34.637Z,27.60
2018-06-27T11:29:03.670Z,27.80
2018-06-27T11:31:31.992Z,27.80
2018-06-27T11:34:00.231Z,27.80
2018-06-27T11:36:28.488Z,27.90
2018-06-27T11:38:56.734Z,28.10
2018-06-27T11:41:25.815Z,27.80
2018-06-27T11:43:54.067Z,27.70
2018-06-27T11:46:22.352Z,27.80
2018-06-27T11:48:50.593Z,27.80
2018-06-27T11:51:18.857Z,27.60
2018-06-27T11:53:47.116Z,27.30
2018-06-27T11:56:15.386Z,27.20
2018-06-27T11:58:43.637Z,27.00
2018-06-27T12:01:11.882Z,26.70
2018-06-27T12:03:40.152Z,26.50
2018-06-27T12:06:09.168Z,26.50
2018-06-27T12:08:37.406Z,26.50
2018-06-27T12:11:05.671Z,26.60
2018-06-27T12:13:33.924Z,26.90
2018-06-27T12:16:02.177Z,27.10
2018-06-27T12:18:30.425Z,27.40
2018-06-27T12:20:58.852Z,27.80
2018-06-27T12:23:27.034Z,28.10
2018-06-27T12:25:55.307Z,28.40
2018-06-27T12:28:23.553Z,28.60
2018-06-27T12:30:52.011Z,28.60
2018-06-27T12:33:20.260Z,28.70
2018-06-27T12:35:48.527Z,29.00
2018-06-27T12:38:16.773Z,29.20
2018-06-27T12:40:45.802Z,29.10
2018-06-27T12:43:14.054Z,29.10
2018-06-27T12:45:42.315Z,29.00
2018-06-27T12:48:11.347Z,29.00
2018-06-27T12:50:39.599Z,29.00
2018-06-27T12:53:07.867Z,29.10
2018-06-27T12:55:36.107Z,29.30
2018-06-27T12:58:04.380Z,29.40
2018-06-27T13:00:32.659Z,29.10
2018-06-27T13:03:00.860Z,28.80
2018-06-27T13:05:29.883Z,29.00
2018-06-27T13:07:58.150Z,29.00
2018-06-27T13:10:26.386Z,29.00
2018-06-27T13:12:55.419Z,29.40
2018-06-27T13:15:23.669Z,29.30
2018-06-27T13:17:52.676Z,29.20
2018-06-27T13:20:20.930Z,29.20
2018-06-27T13:22:49.947Z,29.40
2018-06-27T13:25:18.234Z,29.40
2018-06-27T13:27:46.467Z,29.40
2018-06-27T13:30:15.578Z,29.30
2018-06-27T13:32:43.810Z,29.30
2018-06-27T13:35:12.057Z,29.30
2018-06-27T13:37:40.306Z,29.10
2018-06-27T13:40:08.568Z,29.10
2018-06-27T13:42:37.603Z,29.10
2018-06-27T13:45:05.865Z,29.00
2018-06-27T13:47:34.124Z,29.10
2018-06-27T13:50:02.454Z,29.10
2018-06-27T13:52:31.414Z,29.10
2018-06-27T13:54:59.667Z,29.10
2018-06-27T13:57:27.954Z,29.10
2018-06-27T13:59:56.604Z,28.80
2018-06-27T14:02:24.851Z,28.60
2018-06-27T14:04:53.106Z,28.50
2018-06-27T14:07:22.124Z,28.70
2018-06-27T14:09:50.483Z,28.70
2018-06-27T14:12:18.729Z,28.80
2018-06-27T14:14:46.977Z,28.90
2018-06-27T14:17:16.018Z,29.20
2018-06-27T14:19:44.263Z,29.20
2018-06-27T14:22:12.535Z,29.40
2018-06-27T14:24:41.556Z,29.50
2018-06-27T14:27:09.829Z,29.50
2018-06-27T14:29:38.084Z,29.60
2018-06-27T14:32:06.349Z,29.70
2018-06-27T14:34:34.795Z,29.70
2018-06-27T14:37:03.055Z,29.80
2018-06-27T14:39:32.064Z,29.60
2018-06-27T14:42:00.310Z,29.50
2018-06-27T14:44:28.578Z,29.60
2018-06-27T14:46:56.937Z,29.60
2018-06-27T14:49:25.246Z,29.60
2018-06-27T14:51:54.178Z,29.20
2018-06-27T14:54:23.263Z,29.00
2018-06-27T14:56:51.502Z,29.00
2018-06-27T14:59:19.799Z,28.80
2018-06-27T15:01:48.815Z,29.00
2018-06-27T15:04:17.856Z,29.20
2018-06-27T15:06:46.123Z,29.10
2018-06-27T15:09:14.376Z,29.20
2018-06-27T15:11:42.614Z,29.30
2018-06-27T15:14:10.888Z,29.50
2018-06-27T15:16:39.154Z,29.60
2018-06-27T15:19:07.419Z,29.50
2018-06-27T15:21:35.672Z,29.40
2018-06-27T15:24:03.919Z,29.40
2018-06-27T15:26:32.171Z,29.50
2018-06-27T15:29:01.203Z,29.40
2018-06-27T15:31:29.486Z,29.30
2018-06-27T15:33:57.861Z,29.20
2018-06-27T15:36:26.135Z,29.20
2018-06-27T15:38:54.377Z,29.20
2018-06-27T15:41:23.401Z,29.40
2018-06-27T15:43:51.652Z,29.40
2018-06-27T15:46:20.726Z,29.50
2018-06-27T15:48:49.237Z,29.50
2018-06-27T15:51:17.463Z,29.40
2018-06-27T15:53:45.710Z,29.40
2018-06-27T15:56:13.958Z,29.40
2018-06-27T15:58:42.201Z,29.50
2018-06-27T16:01:11.209Z,29.40
2018-06-27T16:03:40.230Z,29.40
2018-06-27T16:06:08.464Z,29.40
2018-06-27T16:08:37.474Z,29.20
2018-06-27T16:11:05.769Z,29.20
2018-06-27T16:13:34.774Z,29.10
2018-06-27T16:16:03.029Z,29.10
2018-06-27T16:18:31.290Z,28.90
2018-06-27T16:21:00.452Z,28.70
2018-06-27T16:23:28.696Z,28.70
2018-06-27T16:25:56.944Z,28.80
2018-06-27T16:28:25.197Z,28.90
2018-06-27T16:30:54.210Z,28.90
2018-06-27T16:33:22.791Z,28.90
2018-06-27T16:35:51.093Z,29.00
2018-06-27T16:38:19.320Z,28.80
2018-06-27T16:40:47.581Z,28.60
2018-06-27T16:43:16.074Z,28.50
2018-06-27T16:45:44.295Z,28.50
2018-06-27T16:48:12.537Z,28.60
2018-06-27T16:50:41.664Z,28.70
2018-06-27T16:53:09.891Z,28.70
2018-06-27T16:55:38.170Z,28.60
2018-06-27T16:58:07.188Z,28.30
2018-06-27T17:00:36.212Z,28.30
2018-06-27T17:03:04.455Z,28.30
2018-06-27T17:05:32.753Z,28.30
2018-06-27T17:08:01.003Z,28.30
2018-06-27T17:10:29.292Z,28.10
2018-06-27T17:12:57.579Z,28.10
2018-06-27T17:15:26.724Z,28.20
2018-06-27T17:17:54.966Z,28.30
2018-06-27T17:20:23.216Z,28.30
2018-06-27T17:22:51.539Z,28.30
2018-06-27T17:25:19.742Z,28.20
2018-06-27T17:27:48.171Z,27.90
2018-06-27T17:30:16.465Z,27.60
2018-06-27T17:32:44.704Z,27.40
2018-06-27T17:35:12.984Z,27.40
2018-06-27T17:37:41.235Z,27.50
2018-06-27T17:40:09.490Z,27.40
2018-06-27T17:42:38.731Z,27.40
2018-06-27T17:45:07.146Z,27.40
2018-06-27T17:47:35.408Z,27.40
2018-06-27T17:50:03.671Z,27.40
2018-06-27T17:52:31.941Z,27.40
2018-06-27T17:55:00.380Z,27.50
2018-06-27T17:57:28.623Z,27.50
2018-06-27T17:59:56.876Z,27.50
2018-06-27T18:02:25.140Z,27.50
2018-06-27T18:04:53.401Z,27.40
2018-06-27T18:07:21.655Z,27.40
2018-06-27T18:09:49.899Z,27.40
2018-06-27T18:12:18.180Z,27.30
2018-06-27T18:14:46.422Z,27.30
2018-06-27T18:17:14.676Z,27.30
2018-06-27T18:19:42.933Z,27.30
2018-06-27T18:22:11.182Z,27.30
2018-06-27T18:24:39.450Z,27.20
2018-06-27T18:27:07.715Z,27.30
2018-06-27T18:29:35.992Z,27.30
2018-06-27T18:32:04.249Z,27.30
2018-06-27T18:34:32.524Z,27.20
2018-06-27T18:37:00.788Z,27.20
2018-06-27T18:39:29.070Z,27.10
2018-06-27T18:41:57.335Z,27.10
2018-06-27T18:44:25.595Z,26.90
2018-06-27T18:46:53.835Z,26.80
2018-06-27T18:49:22.863Z,26.70
2018-06-27T18:51:51.114Z,26.70
2018-06-27T18:54:20.136Z,26.70
2018-06-27T18:56:48.368Z,26.70
2018-06-27T18:59:17.408Z,26.70
2018-06-27T19:01:45.657Z,26.70
2018-06-27T19:04:13.906Z,26.70
2018-06-27T19:06:42.162Z,26.70
2018-06-27T19:09:10.410Z,26.60
2018-06-27T19:11:38.682Z,26.50
2018-06-27T19:14:06.921Z,26.40
2018-06-27T19:16:35.293Z,26.30
2018-06-27T19:19:04.327Z,26.10
2018-06-27T19:21:32.567Z,26.10
2018-06-27T19:24:01.584Z,26.20
2018-06-27T19:26:29.843Z,26.20
2018-06-27T19:28:58.098Z,26.20
2018-06-27T19:31:27.126Z,25.90
2018-06-27T19:33:55.390Z,25.90
2018-06-27T19:36:23.637Z,25.80
2018-06-27T19:38:52.821Z,25.60
2018-06-27T19:41:21.226Z,25.60
2018-06-27T19:43:49.347Z,25.80
2018-06-27T19:46:17.621Z,25.70
2018-06-27T19:48:45.881Z,25.70
2018-06-27T19:51:14.191Z,25.60
2018-06-27T19:53:42.385Z,25.60
2018-06-27T19:56:11.410Z,25.40
2018-06-27T19:58:39.649Z,25.40
2018-06-27T20:01:08.684Z,25.40
2018-06-27T20:03:36.938Z,25.40
2018-06-27T20:06:05.179Z,25.20
2018-06-27T20:08:33.439Z,25.20
2018-06-27T20:11:01.698Z,25.20
2018-06-27T20:13:29.964Z,25.10
2018-06-27T20:15:58.253Z,25.00
2018-06-27T20:18:26.469Z,24.90
2018-06-27T20:20:55.520Z,24.80
2018-06-27T20:23:23.798Z,24.70
2018-06-27T20:25:52.049Z,24.50
2018-06-27T20:28:20.315Z,24.40
2018-06-27T20:30:48.586Z,24.30
2018-06-27T20:33:16.844Z,24.10
2018-06-27T20:35:45.848Z,23.90
2018-06-27T20:38:14.112Z,23.80
2018-06-27T20:40:43.130Z,23.80
2018-06-27T20:43:11.395Z,23.80
2018-06-27T20:45:39.645Z,23.80
2018-06-27T20:48:08.775Z,23.80
2018-06-27T20:50:37.012Z,23.70
2018-06-27T20:53:06.028Z,24.00
2018-06-27T20:55:34.313Z,23.90
2018-06-27T20:58:03.310Z,24.00
2018-06-27T21:00:31.586Z,24.00
2018-06-27T21:02:59.814Z,24.00
2018-06-27T21:05:28.894Z,23.90
2018-06-27T21:07:57.188Z,23.90
2018-06-27T21:10:25.386Z,24.10
2018-06-27T21:12:53.654Z,23.90
2018-06-27T21:15:22.688Z,23.90
2018-06-27T21:17:51.929Z,23.90
2018-06-27T21:20:20.306Z,23.80
2018-06-27T21:22:48.527Z,23.80
2018-06-27T21:25:16.820Z,23.80
2018-06-27T21:27:45.085Z,23.80
2018-06-27T21:30:13.449Z,23.70
2018-06-27T21:32:41.680Z,23.60
2018-06-27T21:35:10.701Z,23.40
2018-06-27T21:37:38.962Z,23.40
2018-06-27T21:40:07.984Z,23.40
2018-06-27T21:42:36.229Z,23.40
2018-06-27T21:45:05.400Z,23.20
2018-06-27T21:47:33.666Z,23.20
2018-06-27T21:50:01.904Z,23.10
2018-06-27T21:52:30.163Z,23.00
2018-06-27T21:54:58.396Z,23.00
2018-06-27T21:57:26.667Z,23.00
2018-06-27T21:59:54.915Z,23.00
2018-06-27T22:02:23.168Z,22.90
2018-06-27T22:04:51.414Z,22.80
2018-06-27T22:07:20.521Z,22.70
2018-06-27T22:09:49.539Z,22.70
2018-06-27T22:12:17.774Z,22.70
2018-06-27T22:14:46.826Z,22.80
2018-06-27T22:17:15.214Z,22.80
2018-06-27T22:19:43.429Z,22.80
2018-06-27T22:22:12.443Z,22.80
2018-06-27T22:24:40.718Z,22.80
2018-06-27T22:27:08.962Z,22.70
2018-06-27T22:29:37.994Z,22.50
2018-06-27T22:32:06.248Z,22.50
2018-06-27T22:34:34.496Z,22.40
2018-06-27T22:37:02.741Z,22.30
2018-06-27T22:39:30.995Z,22.30
2018-06-27T22:41:59.240Z,22.20
2018-06-27T22:44:28.271Z,22.30
2018-06-27T22:46:56.516Z,22.30
2018-06-27T22:49:24.936Z,22.20
2018-06-27T22:51:53.190Z,22.10
2018-06-27T22:54:21.424Z,22.20
2018-06-27T22:56:50.468Z,22.00
2018-06-27T22:59:18.716Z,22.00
2018-06-27T23:01:46.991Z,22.00
2018-06-27T23:04:15.232Z,22.00
2018-06-27T23:06:43.473Z,21.90
2018-06-27T23:09:11.725Z,21.90
2018-06-27T23:11:39.964Z,21.90
2018-06-27T23:14:09.086Z,21.80
2018-06-27T23:16:37.317Z,21.80
2018-06-27T23:19:05.565Z,21.80
2018-06-27T23:21:33.837Z,21.70
2018-06-27T23:24:02.089Z,21.80
2018-06-27T23:26:30.353Z,21.80
2018-06-27T23:28:58.592Z,21.80
2018-06-27T23:31:26.837Z,21.70
2018-06-27T23:33:55.090Z,21.70
2018-06-27T23:36:23.348Z,21.60
2018-06-27T23:38:52.385Z,21.50
2018-06-27T23:41:20.795Z,21.40
2018-06-27T23:43:49.039Z,21.50
2018-06-27T23:46:17.289Z,21.60
2018-06-27T23:48:45.559Z,21.60
2018-06-27T23:51:13.818Z,21.60
2018-06-27T23:53:42.846Z,21.60
2018-06-27T23:56:11.139Z,21.60
2018-06-27T23:58:39.418Z,21.60
